Time;durP1;ratioP1;P1;durP2;ratioP2;P2;SDS_P1;SDS_P2;PMS_P1;PMS_P2;Temp;Humidity;BMP_temperature;BMP_pressure;BME280_temperature;BME280_humidity;BME280_pressure;Samples;Min_cycle;Max_cycle;Signal;HPM_P1;HPM_P2
2022/09/24 00:00:52;;;;;;;6.70;4.20;;;11.80;99.90;;;;;;4227530;28;20237;-78
2022/09/24 00:02:54;;;;;;;5.53;4.03;;;11.70;99.90;;;;;;4223302;28;20250;-78
2022/09/24 00:04:56;;;;;;;8.83;4.97;;;11.70;99.90;;;;;;4204269;28;20543;-80
2022/09/24 00:06:58;;;;;;;7.43;4.80;;;11.70;99.90;;;;;;4229519;28;20584;-80
2022/09/24 00:09:00;;;;;;;6.60;4.47;;;11.60;99.90;;;;;;4223860;28;20229;-79
2022/09/24 00:11:06;;;;;;;5.97;4.23;;;11.60;99.90;;;;;;4208133;28;20218;-80
2022/09/24 00:13:11;;;;;;;6.63;4.37;;;11.60;99.90;;;;;;4211419;28;20285;-80
2022/09/24 00:15:12;;;;;;;7.90;4.90;;;11.60;99.90;;;;;;4212406;28;20265;-79
2022/09/24 00:17:14;;;;;;;8.27;5.20;;;11.50;99.90;;;;;;4206098;28;20288;-79
2022/09/24 00:19:16;;;;;;;6.93;4.97;;;11.50;99.90;;;;;;4226235;28;20247;-80
2022/09/24 00:21:20;;;;;;;7.90;4.90;;;11.50;99.90;;;;;;4210662;28;20213;-79
2022/09/24 00:23:22;;;;;;;7.83;4.67;;;11.40;99.90;;;;;;4208286;28;20229;-80
2022/09/24 00:27:45;;;;;;;6.97;4.83;;;11.40;99.90;;;;;;4208070;28;20218;-80
2022/09/24 00:29:47;;;;;;;6.73;5.10;;;11.40;99.90;;;;;;4206762;28;20208;-79
2022/09/24 00:31:50;;;;;;;6.87;4.80;;;11.30;99.90;;;;;;4227941;28;20333;-79
2022/09/24 00:33:51;;;;;;;8.07;4.60;;;11.30;99.90;;;;;;4226823;28;20208;-79
2022/09/24 00:35:57;;;;;;;8.17;5.27;;;11.30;99.90;;;;;;4224114;28;20225;-79
2022/09/24 00:37:59;;;;;;;7.13;4.63;;;11.20;99.90;;;;;;4227762;28;20325;-79
2022/09/24 00:40:02;;;;;;;8.47;5.30;;;11.20;99.90;;;;;;4229371;28;20229;-79
2022/09/24 00:42:04;;;;;;;6.10;4.47;;;11.20;99.90;;;;;;4224328;28;20236;-78
2022/09/24 00:44:44;;;;;;;5.17;3.97;;;11.10;99.90;;;;;;4225302;28;20266;-79
2022/09/24 00:46:47;;;;;;;6.47;4.73;;;11.10;99.90;;;;;;4214713;28;20234;-79
2022/09/24 00:48:53;;;;;;;7.47;5.03;;;11.10;99.90;;;;;;4205417;28;20238;-79
2022/09/24 00:50:55;;;;;;;6.93;4.47;;;11.10;99.90;;;;;;4228208;28;20236;-80
2022/09/24 00:53:02;;;;;;;8.90;4.80;;;11.10;99.90;;;;;;4223481;28;20211;-78
2022/09/24 00:55:05;;;;;;;7.23;5.13;;;11.00;99.90;;;;;;4216131;28;20304;-79
2022/09/24 00:57:07;;;;;;;6.50;4.60;;;11.00;99.90;;;;;;4207991;28;20254;-79
2022/09/24 00:59:15;;;;;;;7.13;5.00;;;11.00;99.90;;;;;;4219080;28;20216;-78
2022/09/24 01:01:19;;;;;;;8.67;5.40;;;11.00;99.90;;;;;;4207582;28;20673;-79
2022/09/24 01:03:25;;;;;;;7.63;4.97;;;11.00;99.90;;;;;;4215014;28;20300;-79
2022/09/24 01:05:27;;;;;;;6.50;4.70;;;10.90;99.90;;;;;;4218534;28;20218;-78
2022/09/24 01:07:29;;;;;;;6.67;4.97;;;10.90;99.90;;;;;;4234447;28;20232;-79
2022/09/24 01:09:31;;;;;;;8.53;4.60;;;10.90;99.90;;;;;;4240461;28;20217;-78
2022/09/24 01:11:45;;;;;;;6.43;4.33;;;10.90;99.90;;;;;;4222997;28;20231;-79
2022/09/24 01:14:20;;;;;;;6.90;4.90;;;10.90;99.90;;;;;;4247233;28;20192;-79
2022/09/24 01:16:32;;;;;;;6.37;4.10;;;10.90;99.90;;;;;;4220220;28;20217;-78
2022/09/24 01:18:43;;;;;;;7.73;4.97;;;10.80;99.90;;;;;;4205734;28;20638;-79
2022/09/24 01:21:03;;;;;;;6.40;4.40;;;10.80;99.90;;;;;;4225654;28;20305;-78
2022/09/24 01:23:30;;;;;;;6.40;4.33;;;10.80;99.90;;;;;;4205571;28;20213;-78
2022/09/24 01:25:41;;;;;;;6.80;4.57;;;10.80;99.90;;;;;;4227600;28;20206;-78
2022/09/24 01:27:57;;;;;;;5.93;4.13;;;10.80;99.90;;;;;;4207055;28;20241;-78
2022/09/24 01:30:05;;;;;;;6.17;4.33;;;10.70;99.90;;;;;;4205778;28;20232;-79
2022/09/24 01:32:12;;;;;;;6.33;4.30;;;10.70;99.90;;;;;;4217744;28;20208;-78
2022/09/24 01:34:18;;;;;;;6.10;4.03;;;10.70;99.90;;;;;;4221098;28;20219;-79
2022/09/24 01:36:21;;;;;;;5.57;3.97;;;10.70;99.90;;;;;;4208383;28;20217;-78
2022/09/24 01:38:26;;;;;;;6.03;4.17;;;10.70;99.90;;;;;;4225644;28;20288;-79
2022/09/24 01:40:30;;;;;;;5.37;4.10;;;10.70;99.90;;;;;;4196649;28;20309;-79
2022/09/24 01:42:33;;;;;;;5.87;3.93;;;10.70;99.90;;;;;;4208261;28;20281;-78
2022/09/24 01:44:36;;;;;;;5.50;3.90;;;10.70;99.90;;;;;;4223863;28;20201;-78
2022/09/24 01:46:41;;;;;;;5.67;4.07;;;10.70;99.90;;;;;;4224088;28;20466;-78
2022/09/24 01:48:45;;;;;;;6.07;4.30;;;10.70;99.90;;;;;;4216526;28;20304;-79
2022/09/24 01:50:52;;;;;;;5.13;3.37;;;10.70;99.90;;;;;;4202787;28;20577;-78
2022/09/24 01:53:00;;;;;;;5.27;3.73;;;10.60;99.90;;;;;;4206535;28;20308;-79
2022/09/24 01:55:06;;;;;;;6.47;3.97;;;10.60;99.90;;;;;;4213628;28;20208;-80
2022/09/24 01:57:13;;;;;;;6.20;4.20;;;10.60;99.90;;;;;;4226766;28;20282;-79
2022/09/24 01:59:22;;;;;;;5.37;4.10;;;10.60;99.90;;;;;;4230070;28;20279;-79
2022/09/24 02:01:30;;;;;;;7.53;4.53;;;10.50;99.90;;;;;;4208263;28;20252;-78
2022/09/24 02:03:42;;;;;;;6.10;4.17;;;10.60;99.90;;;;;;4204051;28;20308;-79
2022/09/24 02:05:51;;;;;;;6.27;4.53;;;10.60;99.90;;;;;;4226063;28;20221;-80
2022/09/24 02:08:00;;;;;;;6.87;4.20;;;10.60;99.90;;;;;;4220286;28;21023;-80
2022/09/24 02:10:03;;;;;;;6.70;4.17;;;10.50;99.90;;;;;;4221297;28;20229;-80
2022/09/24 02:12:10;;;;;;;5.73;3.90;;;10.50;99.90;;;;;;4226485;28;20231;-79
2022/09/24 02:14:14;;;;;;;5.60;3.90;;;10.60;99.90;;;;;;4216106;28;20266;-79
2022/09/24 02:16:20;;;;;;;6.23;4.00;;;10.50;99.90;;;;;;4206934;28;20308;-79
2022/09/24 02:18:28;;;;;;;6.37;3.90;;;10.50;99.90;;;;;;4225305;28;20235;-80
2022/09/24 02:20:31;;;;;;;6.47;4.00;;;10.50;99.90;;;;;;4207720;28;20345;-80
2022/09/24 02:22:34;;;;;;;5.30;3.80;;;10.40;99.90;;;;;;4206985;28;20289;-79
2022/09/24 02:24:44;;;;;;;6.07;4.13;;;10.50;99.90;;;;;;4209809;28;20289;-78
2022/09/24 02:26:46;;;;;;;5.93;3.73;;;10.40;99.90;;;;;;4223504;28;20307;-79
2022/09/24 02:28:48;;;;;;;4.77;3.73;;;10.40;99.90;;;;;;4224453;28;20208;-79
2022/09/24 02:30:56;;;;;;;5.60;3.90;;;10.40;99.90;;;;;;4208072;28;20216;-78
2022/09/24 02:32:59;;;;;;;6.87;3.87;;;10.40;99.90;;;;;;4205268;28;20205;-79
2022/09/24 02:35:03;;;;;;;5.07;3.63;;;10.40;99.90;;;;;;4222625;28;20317;-79
2022/09/24 02:37:08;;;;;;;6.03;3.90;;;10.40;99.90;;;;;;4208647;28;20269;-79
2022/09/24 02:39:10;;;;;;;5.87;3.63;;;10.40;99.90;;;;;;4210334;28;20881;-79
2022/09/24 02:41:12;;;;;;;4.77;3.53;;;10.30;99.90;;;;;;4205343;28;20272;-79
2022/09/24 02:43:14;;;;;;;4.77;3.67;;;10.30;99.90;;;;;;4208449;28;20236;-79
2022/09/24 02:45:16;;;;;;;4.93;3.23;;;10.30;99.90;;;;;;4227746;28;20224;-80
2022/09/24 02:47:18;;;;;;;5.23;3.83;;;10.30;99.90;;;;;;4219576;28;20229;-81
2022/09/24 02:49:20;;;;;;;5.17;3.50;;;10.30;99.90;;;;;;4205562;28;20209;-79
2022/09/24 02:51:22;;;;;;;4.70;3.30;;;10.30;99.90;;;;;;4223601;28;20230;-80
2022/09/24 02:53:25;;;;;;;6.80;4.07;;;10.30;99.90;;;;;;4197041;28;20329;-79
2022/09/24 02:55:27;;;;;;;6.10;3.47;;;10.30;99.90;;;;;;4202546;28;20222;-80
2022/09/24 02:57:28;;;;;;;6.33;3.83;;;10.30;99.90;;;;;;4222164;28;20267;-79
2022/09/24 02:59:30;;;;;;;6.53;4.20;;;10.30;99.90;;;;;;4215670;28;20704;-77
2022/09/24 03:01:33;;;;;;;6.63;3.90;;;10.30;99.90;;;;;;4227133;28;20302;-78
2022/09/24 03:03:34;;;;;;;4.53;3.33;;;10.30;99.90;;;;;;4206170;28;20253;-79
2022/09/24 03:05:36;;;;;;;5.00;3.80;;;10.30;99.90;;;;;;4203943;28;20622;-78
2022/09/24 03:07:38;;;;;;;4.70;3.40;;;10.30;99.90;;;;;;4224163;28;20281;-79
2022/09/24 03:09:41;;;;;;;5.60;3.40;;;10.30;99.90;;;;;;4209996;28;20228;-79
2022/09/24 03:11:43;;;;;;;4.30;3.50;;;10.30;99.90;;;;;;4208817;28;20214;-79
2022/09/24 03:13:45;;;;;;;5.37;3.27;;;10.30;99.90;;;;;;4216502;28;20206;-79
2022/09/24 03:15:48;;;;;;;5.00;3.40;;;10.20;99.90;;;;;;4228233;28;20288;-79
2022/09/24 03:17:49;;;;;;;4.63;3.50;;;10.20;99.90;;;;;;4210493;28;20569;-80
2022/09/24 03:19:51;;;;;;;5.03;3.60;;;10.20;99.90;;;;;;4211827;28;20305;-79
2022/09/24 03:21:53;;;;;;;5.50;3.90;;;10.20;99.90;;;;;;4228164;28;20380;-80
2022/09/24 03:23:55;;;;;;;5.43;3.33;;;10.20;99.90;;;;;;4232673;28;20220;-80
2022/09/24 03:25:58;;;;;;;4.23;3.40;;;10.20;99.90;;;;;;4210615;28;20249;-80
2022/09/24 03:28:00;;;;;;;5.43;3.50;;;10.20;99.90;;;;;;4230068;28;20289;-79
2022/09/24 03:32:22;;;;;;;4.17;3.10;;;10.20;99.90;;;;;;4208982;28;20252;-79
2022/09/24 03:34:24;;;;;;;4.87;3.57;;;10.20;99.90;;;;;;4223384;28;20202;-79
2022/09/24 03:36:26;;;;;;;5.17;3.70;;;10.20;99.90;;;;;;4212169;28;20323;-79
2022/09/24 03:38:28;;;;;;;4.80;3.73;;;10.20;99.90;;;;;;4211113;28;20225;-80
2022/09/24 03:40:30;;;;;;;5.27;3.53;;;10.20;99.90;;;;;;4204377;28;20230;-80
2022/09/24 03:42:33;;;;;;;5.57;3.60;;;10.20;99.90;;;;;;4212828;28;20285;-79
2022/09/24 03:44:35;;;;;;;5.83;3.43;;;10.20;99.90;;;;;;4216485;28;20263;-80
2022/09/24 03:46:37;;;;;;;4.90;3.63;;;10.20;99.90;;;;;;4226488;28;20584;-80
2022/09/24 03:48:40;;;;;;;5.40;3.50;;;10.20;99.90;;;;;;4223671;28;20205;-80
2022/09/24 03:50:42;;;;;;;4.63;3.30;;;10.20;99.90;;;;;;4205686;28;20332;-79
2022/09/24 03:52:44;;;;;;;4.77;3.53;;;10.20;99.90;;;;;;4202750;28;20221;-79
2022/09/24 03:54:46;;;;;;;4.80;3.43;;;10.20;99.90;;;;;;4212752;28;20205;-78
2022/09/24 03:56:48;;;;;;;4.60;3.20;;;10.20;99.90;;;;;;4220503;28;20253;-78
2022/09/24 03:58:51;;;;;;;4.47;3.27;;;10.20;99.90;;;;;;4233800;28;20198;-78
2022/09/24 04:00:53;;;;;;;5.47;3.53;;;10.10;99.90;;;;;;4224207;28;20222;-78
2022/09/24 04:02:55;;;;;;;4.73;3.27;;;10.10;99.90;;;;;;4245076;28;20176;-77
2022/09/24 04:04:57;;;;;;;4.83;3.30;;;10.10;99.90;;;;;;4243105;28;20186;-78
2022/09/24 04:06:59;;;;;;;4.20;2.97;;;10.10;99.90;;;;;;4240612;28;20225;-77
2022/09/24 04:09:01;;;;;;;4.50;2.90;;;10.10;99.90;;;;;;4234067;28;20232;-78
2022/09/24 04:11:03;;;;;;;5.07;3.10;;;10.20;99.90;;;;;;4228070;28;20205;-78
2022/09/24 04:13:05;;;;;;;4.93;3.47;;;10.10;99.90;;;;;;4219299;28;20212;-79
2022/09/24 04:15:09;;;;;;;3.77;2.87;;;10.10;99.90;;;;;;4228714;28;20207;-78
2022/09/24 04:17:11;;;;;;;4.53;3.20;;;10.10;99.90;;;;;;4227473;28;20866;-78
2022/09/24 04:19:14;;;;;;;4.77;3.40;;;10.00;99.90;;;;;;4207305;28;20210;-79
2022/09/24 04:21:17;;;;;;;4.93;3.23;;;10.00;99.90;;;;;;4215820;28;20233;-79
2022/09/24 04:23:18;;;;;;;4.03;3.10;;;10.00;99.90;;;;;;4220538;28;20792;-78
2022/09/24 04:25:22;;;;;;;4.43;3.50;;;10.00;99.90;;;;;;4204113;28;20217;-78
2022/09/24 04:27:24;;;;;;;4.77;3.43;;;10.00;99.90;;;;;;4206290;28;20241;-79
2022/09/24 04:29:25;;;;;;;6.13;3.70;;;10.00;99.90;;;;;;4228429;28;20231;-78
2022/09/24 04:31:32;;;;;;;5.83;3.53;;;10.00;99.90;;;;;;4209896;28;20981;-78
2022/09/24 04:33:34;;;;;;;5.73;3.57;;;10.00;99.90;;;;;;4225356;28;20239;-79
2022/09/24 04:35:36;;;;;;;6.13;3.73;;;9.90;99.90;;;;;;4231997;28;20204;-79
2022/09/24 04:37:37;;;;;;;5.00;3.60;;;9.90;99.90;;;;;;4214513;28;20491;-78
2022/09/24 04:39:39;;;;;;;5.43;4.03;;;9.90;99.90;;;;;;4228910;28;20265;-78
2022/09/24 04:41:41;;;;;;;5.50;4.17;;;9.90;99.90;;;;;;4210579;28;20220;-79
2022/09/24 04:43:45;;;;;;;6.17;4.27;;;9.90;99.90;;;;;;4211752;28;20273;-79
2022/09/24 04:45:47;;;;;;;7.93;4.47;;;9.90;99.90;;;;;;4211034;28;20209;-79
2022/09/24 04:47:54;;;;;;;6.70;4.43;;;9.80;99.90;;;;;;4219744;28;20569;-79
2022/09/24 04:49:57;;;;;;;6.83;4.20;;;9.80;99.90;;;;;;4208235;28;20693;-79
2022/09/24 04:51:59;;;;;;;6.10;4.10;;;9.80;99.90;;;;;;4209470;28;20204;-79
2022/09/24 04:54:02;;;;;;;5.43;4.03;;;9.80;99.90;;;;;;4205799;28;20291;-79
2022/09/24 04:56:05;;;;;;;4.40;3.77;;;9.80;99.90;;;;;;4210960;28;20272;-79
2022/09/24 04:58:06;;;;;;;6.03;4.07;;;9.80;99.90;;;;;;4212953;28;20232;-79
2022/09/24 05:00:14;;;;;;;5.57;3.87;;;9.80;99.90;;;;;;4211537;28;20459;-79
2022/09/24 05:02:16;;;;;;;6.00;4.37;;;9.70;99.90;;;;;;4218126;28;20479;-79
2022/09/24 05:04:19;;;;;;;6.73;4.10;;;9.70;99.90;;;;;;4224072;28;20213;-79
2022/09/24 05:06:21;;;;;;;6.00;3.83;;;9.70;99.90;;;;;;4212924;28;20225;-79
2022/09/24 05:08:23;;;;;;;6.03;4.03;;;9.70;99.90;;;;;;4221768;28;20463;-79
2022/09/24 05:10:26;;;;;;;5.80;3.97;;;9.70;99.90;;;;;;4231983;28;20783;-79
2022/09/24 05:12:28;;;;;;;6.80;4.70;;;9.60;99.90;;;;;;4216050;28;20209;-79
2022/09/24 05:14:30;;;;;;;5.20;3.67;;;9.70;99.90;;;;;;4231098;28;20209;-79
2022/09/24 05:16:31;;;;;;;5.43;3.90;;;9.60;99.90;;;;;;4224296;28;20233;-79
2022/09/24 05:18:33;;;;;;;6.07;4.10;;;9.60;99.90;;;;;;4226538;28;20474;-78
2022/09/24 05:20:36;;;;;;;5.97;4.23;;;9.60;99.90;;;;;;4213378;28;20217;-79
2022/09/24 05:22:41;;;;;;;6.27;4.10;;;9.60;99.90;;;;;;4228319;28;20521;-79
2022/09/24 05:24:43;;;;;;;5.67;3.57;;;9.50;99.90;;;;;;4233024;28;20521;-78
2022/09/24 05:29:04;;;;;;;6.27;4.00;;;9.50;99.90;;;;;;4219329;28;20458;-78
2022/09/24 05:31:07;;;;;;;6.00;4.37;;;9.50;99.90;;;;;;4229542;28;20196;-79
2022/09/24 05:33:09;;;;;;;6.80;4.17;;;9.50;99.90;;;;;;4225116;28;20449;-79
2022/09/24 05:35:11;;;;;;;5.47;3.77;;;9.50;99.90;;;;;;4208296;28;21068;-79
2022/09/24 05:37:15;;;;;;;4.90;3.80;;;9.50;99.90;;;;;;4204281;28;20519;-78
2022/09/24 05:39:17;;;;;;;5.43;3.70;;;9.40;99.90;;;;;;4221184;28;20442;-78
2022/09/24 05:41:18;;;;;;;4.97;3.60;;;9.50;99.90;;;;;;4205597;28;21004;-78
2022/09/24 05:43:21;;;;;;;5.33;3.90;;;9.40;99.90;;;;;;4205694;28;20396;-79
2022/09/24 05:45:22;;;;;;;6.97;4.17;;;9.50;99.90;;;;;;4221162;28;20542;-79
2022/09/24 05:47:24;;;;;;;5.47;3.60;;;9.40;99.90;;;;;;4205817;28;20572;-79
2022/09/24 05:49:26;;;;;;;5.40;3.80;;;9.40;99.90;;;;;;4225606;28;20900;-79
2022/09/24 05:51:28;;;;;;;6.40;4.13;;;9.40;99.90;;;;;;4224604;28;20817;-80
2022/09/24 05:53:31;;;;;;;6.33;4.20;;;9.40;99.90;;;;;;4203925;28;20495;-79
2022/09/24 05:55:33;;;;;;;6.10;4.30;;;9.40;99.90;;;;;;4204601;28;20490;-78
2022/09/24 05:57:35;;;;;;;5.33;3.90;;;9.40;99.90;;;;;;4208037;28;20519;-79
2022/09/24 05:59:37;;;;;;;5.80;4.43;;;9.40;99.90;;;;;;4200084;28;20444;-78
2022/09/24 06:01:39;;;;;;;5.47;3.97;;;9.40;99.90;;;;;;4225914;28;20498;-78
2022/09/24 06:03:41;;;;;;;8.33;4.00;;;9.40;99.90;;;;;;4227257;28;20507;-79
2022/09/24 06:05:47;;;;;;;5.57;4.10;;;9.40;99.90;;;;;;4199937;28;20897;-79
2022/09/24 06:07:49;;;;;;;6.50;4.07;;;9.40;99.90;;;;;;4223448;28;20888;-78
2022/09/24 06:09:52;;;;;;;5.43;3.77;;;9.50;99.90;;;;;;4206699;28;21233;-79
2022/09/24 06:11:55;;;;;;;6.07;4.17;;;9.50;99.90;;;;;;4223388;28;20537;-79
2022/09/24 06:13:57;;;;;;;6.03;4.23;;;9.50;99.90;;;;;;4225217;28;20438;-79
2022/09/24 06:16:03;;;;;;;5.77;3.60;;;9.50;99.90;;;;;;4215484;28;20563;-78
2022/09/24 06:18:05;;;;;;;5.03;3.70;;;9.50;99.90;;;;;;4229587;28;20476;-79
2022/09/24 06:20:08;;;;;;;5.43;3.40;;;9.50;99.90;;;;;;4223240;28;20212;-78
2022/09/24 06:22:09;;;;;;;8.77;4.10;;;9.50;99.90;;;;;;4212777;28;20492;-79
2022/09/24 06:24:11;;;;;;;4.57;3.40;;;9.50;99.90;;;;;;4226993;28;20458;-80
2022/09/24 06:26:15;;;;;;;4.90;3.70;;;9.60;99.90;;;;;;4222386;28;20557;-79
2022/09/24 06:28:17;;;;;;;5.37;3.87;;;9.60;99.90;;;;;;4217474;28;20466;-78
2022/09/24 06:30:18;;;;;;;4.53;3.20;;;9.70;99.90;;;;;;4208285;28;20551;-78
2022/09/24 06:32:23;;;;;;;4.17;3.30;;;9.60;99.90;;;;;;4222248;28;20449;-79
2022/09/24 06:34:24;;;;;;;6.30;3.90;;;9.60;99.90;;;;;;4225786;28;20669;-79
2022/09/24 06:36:26;;;;;;;5.10;3.33;;;9.60;99.90;;;;;;4203201;28;20305;-79
2022/09/24 06:38:29;;;;;;;4.07;2.97;;;9.70;99.90;;;;;;4225588;28;20440;-80
2022/09/24 06:40:31;;;;;;;4.57;3.23;;;9.70;99.90;;;;;;4225264;28;20258;-80
2022/09/24 06:42:35;;;;;;;4.77;3.43;;;9.70;99.90;;;;;;4223098;28;20221;-79
2022/09/24 06:44:36;;;;;;;4.07;3.17;;;9.70;99.90;;;;;;4218204;28;20281;-79
2022/09/24 06:46:38;;;;;;;4.10;2.97;;;9.70;99.90;;;;;;4235387;28;20229;-78
2022/09/24 06:48:41;;;;;;;4.43;3.40;;;9.70;99.90;;;;;;4234901;28;20292;-77
2022/09/24 06:50:44;;;;;;;7.27;4.13;;;9.70;99.90;;;;;;4233077;28;20221;-78
2022/09/24 06:52:46;;;;;;;5.53;3.70;;;9.70;99.90;;;;;;4213268;28;20205;-79
2022/09/24 06:54:48;;;;;;;8.67;4.20;;;9.70;99.90;;;;;;4226981;28;20447;-78
2022/09/24 06:56:51;;;;;;;7.40;4.70;;;9.70;99.90;;;;;;4219401;28;20240;-78
2022/09/24 06:58:54;;;;;;;9.57;4.97;;;9.70;99.90;;;;;;4223530;28;20235;-79
2022/09/24 07:00:59;;;;;;;6.77;4.80;;;9.70;99.90;;;;;;4229459;28;20207;-79
2022/09/24 07:03:01;;;;;;;7.53;4.30;;;9.80;99.90;;;;;;4228937;28;20313;-78
2022/09/24 07:05:03;;;;;;;6.63;4.80;;;9.80;99.90;;;;;;4221525;28;20209;-79
2022/09/24 07:09:24;;;;;;;6.50;4.43;;;10.00;99.90;;;;;;4207017;28;20202;-79
2022/09/24 07:11:27;;;;;;;7.13;4.57;;;9.90;99.90;;;;;;4221419;28;20212;-79
2022/09/24 07:13:29;;;;;;;4.87;4.00;;;9.90;99.90;;;;;;4207518;28;20520;-78
2022/09/24 07:15:32;;;;;;;6.73;4.97;;;9.90;99.90;;;;;;4220883;28;20280;-80
2022/09/24 07:17:34;;;;;;;6.77;4.27;;;9.90;99.90;;;;;;4224095;28;20412;-79
2022/09/24 07:19:37;;;;;;;6.73;4.50;;;10.00;99.90;;;;;;4220734;28;20269;-79
2022/09/24 07:21:38;;;;;;;5.70;4.17;;;10.00;99.90;;;;;;4231009;28;20204;-79
2022/09/24 07:23:40;;;;;;;6.13;4.13;;;10.10;99.90;;;;;;4206155;28;20229;-79
2022/09/24 07:25:42;;;;;;;6.57;4.43;;;10.10;99.90;;;;;;4221387;28;20205;-79
2022/09/24 07:27:44;;;;;;;6.37;4.20;;;10.20;99.90;;;;;;4227491;28;20248;-80
2022/09/24 07:29:46;;;;;;;5.87;4.17;;;10.20;99.90;;;;;;4205789;28;20210;-80
2022/09/24 07:31:49;;;;;;;8.20;4.90;;;10.30;99.90;;;;;;4208950;28;20301;-79
2022/09/24 07:33:52;;;;;;;9.80;5.00;;;10.30;99.90;;;;;;4205823;28;20209;-81
2022/09/24 07:35:54;;;;;;;10.93;5.63;;;10.30;99.90;;;;;;4204857;28;20235;-79
2022/09/24 07:38:00;;;;;;;8.00;5.03;;;10.40;99.90;;;;;;4224609;28;20228;-80
2022/09/24 07:40:02;;;;;;;8.17;4.87;;;10.40;99.90;;;;;;4227760;28;20295;-79
2022/09/24 07:42:06;;;;;;;8.00;5.10;;;10.50;99.90;;;;;;4226638;28;20222;-79
2022/09/24 07:44:08;;;;;;;7.07;4.90;;;10.50;99.90;;;;;;4225508;28;20225;-80
2022/09/24 07:46:10;;;;;;;6.30;4.53;;;10.60;99.90;;;;;;4205544;28;20737;-79
2022/09/24 07:48:14;;;;;;;6.03;4.20;;;10.70;99.90;;;;;;4225839;28;20249;-78
2022/09/24 07:50:17;;;;;;;7.07;4.17;;;10.70;99.90;;;;;;4205827;28;20294;-79
2022/09/24 07:52:19;;;;;;;5.23;3.87;;;10.80;99.90;;;;;;4227043;28;20227;-79
2022/09/24 07:54:21;;;;;;;5.17;3.83;;;10.80;99.90;;;;;;4212133;28;20301;-79
2022/09/24 07:56:23;;;;;;;5.07;3.53;;;10.90;99.90;;;;;;4226496;28;20222;-78
2022/09/24 07:58:25;;;;;;;5.87;3.90;;;11.10;99.90;;;;;;4201289;28;20717;-79
2022/09/24 08:00:27;;;;;;;7.83;5.00;;;11.10;99.90;;;;;;4224871;28;20221;-79
2022/09/24 08:02:30;;;;;;;6.20;4.70;;;11.20;99.90;;;;;;4214613;28;20213;-79
2022/09/24 08:04:33;;;;;;;5.60;4.30;;;11.30;99.90;;;;;;4224855;28;20202;-79
2022/09/24 08:06:36;;;;;;;6.37;4.30;;;11.30;99.90;;;;;;4212841;28;20236;-79
2022/09/24 08:08:38;;;;;;;7.03;3.90;;;11.50;99.90;;;;;;4211505;28;20215;-79
2022/09/24 08:10:40;;;;;;;5.07;3.67;;;11.50;99.90;;;;;;4230318;28;20285;-79
2022/09/24 08:12:42;;;;;;;5.70;3.90;;;11.60;99.90;;;;;;4227601;28;20229;-79
2022/09/24 08:14:44;;;;;;;6.40;3.57;;;11.70;99.90;;;;;;4211678;28;20242;-79
2022/09/24 08:16:46;;;;;;;6.33;4.07;;;11.70;99.90;;;;;;4229752;28;20311;-79
2022/09/24 08:18:48;;;;;;;7.53;3.87;;;11.80;99.90;;;;;;4235998;28;20219;-79
2022/09/24 08:20:51;;;;;;;5.40;3.93;;;11.90;99.90;;;;;;4233717;28;20231;-79
2022/09/24 08:22:53;;;;;;;6.17;3.97;;;12.00;99.90;;;;;;4227847;28;20229;-79
2022/09/24 08:24:56;;;;;;;6.87;4.10;;;12.00;99.90;;;;;;4229991;28;20203;-79
2022/09/24 08:26:58;;;;;;;4.70;3.63;;;12.10;99.90;;;;;;4211416;28;20710;-79
2022/09/24 08:29:00;;;;;;;6.37;4.03;;;12.20;99.90;;;;;;4231976;28;20688;-79
2022/09/24 08:31:06;;;;;;;7.43;4.37;;;12.20;99.90;;;;;;4229950;28;20736;-78
2022/09/24 08:33:08;;;;;;;7.10;3.67;;;12.30;99.90;;;;;;4225853;28;20577;-78
2022/09/24 08:35:10;;;;;;;6.40;3.90;;;12.40;99.90;;;;;;4224973;28;20735;-78
2022/09/24 08:37:13;;;;;;;5.70;3.90;;;12.50;99.90;;;;;;4227413;28;20228;-78
2022/09/24 08:39:15;;;;;;;6.40;3.90;;;12.50;99.90;;;;;;4215465;28;20255;-78
2022/09/24 08:41:34;;;;;;;6.33;4.33;;;12.60;99.90;;;;;;4228840;28;20742;-79
2022/09/24 08:43:46;;;;;;;6.43;3.83;;;12.70;99.90;;;;;;4210251;28;20308;-79
2022/09/24 08:48:19;;;;;;;5.10;3.83;;;12.90;99.90;;;;;;4225961;28;20197;-79
2022/09/24 08:50:23;;;;;;;8.43;4.47;;;12.90;99.90;;;;;;4222209;28;20213;-79
2022/09/24 08:52:35;;;;;;;7.47;4.27;;;13.00;99.90;;;;;;4204015;28;20215;-79
2022/09/24 08:54:38;;;;;;;7.70;4.40;;;13.10;99.90;;;;;;4209607;28;20304;-79
2022/09/24 08:56:44;;;;;;;14.67;6.60;;;13.10;99.90;;;;;;4210154;28;20637;-79
2022/09/24 08:58:52;;;;;;;11.17;6.23;;;13.20;99.90;;;;;;4204138;28;20586;-80
2022/09/24 09:01:00;;;;;;;10.43;5.87;;;13.30;99.90;;;;;;4207943;28;20211;-80
2022/09/24 09:03:08;;;;;;;7.73;4.73;;;13.40;99.90;;;;;;4223970;28;20248;-80
2022/09/24 09:05:22;;;;;;;6.87;4.50;;;13.50;99.90;;;;;;4209878;28;20322;-78
2022/09/24 09:07:31;;;;;;;8.27;4.83;;;13.50;99.90;;;;;;4223776;28;20281;-78
2022/09/24 09:09:42;;;;;;;7.43;4.70;;;13.70;99.90;;;;;;4222588;28;20553;-85
2022/09/24 09:11:47;;;;;;;6.90;4.30;;;13.70;99.90;;;;;;4201473;28;20217;-78
2022/09/24 09:13:56;;;;;;;6.80;4.00;;;13.80;99.90;;;;;;4208040;28;20210;-79
2022/09/24 09:16:04;;;;;;;6.07;3.90;;;13.90;99.90;;;;;;4218166;28;20717;-79
2022/09/24 09:18:14;;;;;;;4.67;3.40;;;13.90;99.90;;;;;;4221947;28;20296;-79
2022/09/24 09:20:21;;;;;;;5.80;3.57;;;14.00;99.90;;;;;;4199496;28;20267;-80
2022/09/24 09:22:27;;;;;;;4.27;3.30;;;14.00;99.90;;;;;;4212837;28;20300;-79
2022/09/24 09:24:39;;;;;;;3.60;2.80;;;14.10;99.90;;;;;;4222603;28;20814;-78
2022/09/24 09:26:42;;;;;;;5.97;3.27;;;14.20;99.90;;;;;;4218333;28;20234;-78
2022/09/24 09:28:45;;;;;;;5.27;3.40;;;14.30;99.90;;;;;;4226632;28;20213;-78
2022/09/24 09:30:57;;;;;;;5.90;3.50;;;14.20;99.90;;;;;;4225848;28;20289;-79
2022/09/24 09:33:18;;;;;;;5.50;3.13;;;14.20;99.90;;;;;;4206351;28;20749;-78
2022/09/24 09:35:27;;;;;;;5.13;3.47;;;14.20;99.90;;;;;;4205563;28;20204;-78
2022/09/24 09:37:36;;;;;;;5.37;3.17;;;14.30;99.90;;;;;;4218508;28;20305;-78
2022/09/24 09:39:49;;;;;;;4.80;3.33;;;14.30;99.90;;;;;;4226290;28;20197;-75
2022/09/24 09:41:57;;;;;;;4.70;3.30;;;14.30;99.90;;;;;;4220580;28;20211;-75
2022/09/24 09:44:02;;;;;;;6.27;3.47;;;14.40;99.90;;;;;;4211918;28;20233;-81
2022/09/24 09:46:12;;;;;;;5.20;3.07;;;14.40;99.90;;;;;;4213579;28;20223;-77
2022/09/24 09:48:18;;;;;;;3.63;3.00;;;14.50;99.90;;;;;;4225008;28;20193;-78
2022/09/24 09:50:27;;;;;;;6.30;3.10;;;14.50;99.90;;;;;;4207903;28;20215;-78
2022/09/24 09:52:34;;;;;;;6.10;3.07;;;14.50;99.90;;;;;;4203382;28;20293;-76
2022/09/24 09:54:37;;;;;;;3.67;2.93;;;14.60;99.90;;;;;;4219363;28;20203;-77
2022/09/24 09:56:44;;;;;;;4.03;3.00;;;14.60;99.90;;;;;;4222573;28;20294;-76
2022/09/24 09:58:51;;;;;;;4.03;2.80;;;14.70;99.90;;;;;;4220350;28;20209;-78
2022/09/24 10:01:04;;;;;;;2.50;2.30;;;14.70;99.90;;;;;;4218883;28;20207;-77
2022/09/24 10:03:06;;;;;;;4.83;2.93;;;14.80;99.90;;;;;;4217286;28;20773;-77
2022/09/24 10:05:20;;;;;;;3.50;2.47;;;14.90;99.90;;;;;;4219464;28;20743;-76
2022/09/24 10:07:23;;;;;;;3.43;2.40;;;14.90;99.90;;;;;;4211352;28;20234;-76
2022/09/24 10:09:24;;;;;;;3.70;2.90;;;15.00;99.90;;;;;;4220324;28;20687;-77
2022/09/24 10:11:26;;;;;;;4.50;2.87;;;15.00;99.90;;;;;;4221548;28;20215;-77
2022/09/24 10:13:31;;;;;;;4.27;3.37;;;15.10;99.90;;;;;;4222173;28;20279;-76
2022/09/24 10:15:33;;;;;;;4.17;2.80;;;15.20;99.90;;;;;;4220072;28;20640;-77
2022/09/24 10:17:39;;;;;;;4.73;3.27;;;15.30;99.90;;;;;;4215127;28;20661;-78
2022/09/24 10:19:46;;;;;;;7.20;2.90;;;15.40;99.90;;;;;;4210000;28;20243;-79
2022/09/24 10:21:50;;;;;;;4.17;2.93;;;15.40;99.90;;;;;;4209177;28;20249;-77
2022/09/24 10:23:57;;;;;;;7.53;3.40;;;15.50;99.90;;;;;;4210656;28;20311;-80
2022/09/24 10:26:01;;;;;;;3.50;2.80;;;15.60;99.90;;;;;;4207575;28;20648;-77
2022/09/24 10:30:35;;;;;;;4.17;2.90;;;15.70;99.90;;;;;;4203267;28;20203;-78
2022/09/24 10:32:37;;;;;;;3.57;2.50;;;15.80;99.90;;;;;;4220174;28;20577;-77
2022/09/24 10:34:39;;;;;;;5.70;2.87;;;15.90;99.90;;;;;;4203499;28;20303;-79
2022/09/24 10:36:51;;;;;;;5.23;2.97;;;16.00;99.90;;;;;;4220404;28;20220;-78
2022/09/24 10:39:02;;;;;;;4.97;2.97;;;16.10;99.90;;;;;;4201436;28;20212;-76
2022/09/24 10:41:22;;;;;;;4.97;3.23;;;16.20;99.90;;;;;;4198256;28;20684;-75
2022/09/24 10:43:24;;;;;;;3.33;2.60;;;16.30;99.90;;;;;;4222160;28;20226;-76
2022/09/24 10:46:02;;;;;;;3.80;3.00;;;16.40;99.90;;;;;;4202904;28;20198;-76
2022/09/24 10:48:13;;;;;;;3.33;2.57;;;16.50;99.90;;;;;;4216482;28;20208;-77
2022/09/24 10:50:27;;;;;;;3.73;2.90;;;16.60;99.90;;;;;;4197579;28;20209;-78
2022/09/24 10:52:40;;;;;;;4.23;2.77;;;16.80;99.90;;;;;;4216238;28;20192;-77
2022/09/24 10:54:54;;;;;;;3.70;3.07;;;16.90;95.10;;;;;;4199353;28;20297;-76
2022/09/24 10:56:59;;;;;;;4.53;2.93;;;17.20;93.80;;;;;;4219267;28;20256;-77
2022/09/24 10:59:27;;;;;;;5.00;3.23;;;17.50;93.70;;;;;;4220415;28;20926;-78
2022/09/24 11:01:42;;;;;;;4.93;3.13;;;17.60;91.70;;;;;;4215332;28;20211;-77
2022/09/24 11:03:57;;;;;;;4.43;2.97;;;17.90;85.70;;;;;;4220248;28;20763;-78